sensor_id;sensor_type;location;lat;lon;timestamp;temperature;humidity
24262;DHT22;12385;51.412;5.540;2024-03-22T00:01:44;12.30;99.90
24262;DHT22;12385;51.412;5.540;2024-03-22T00:04:10;12.30;99.90
24262;DHT22;12385;51.412;5.540;2024-03-22T00:06:36;12.30;99.90
24262;DHT22;12385;51.412;5.540;2024-03-22T00:09:01;12.30;99.90
24262;DHT22;12385;51.412;5.540;2024-03-22T00:11:29;12.40;99.90
24262;DHT22;12385;51.412;5.540;2024-03-22T00:13:58;12.40;99.90
24262;DHT22;12385;51.412;5.540;2024-03-22T00:16:24;12.40;99.90
24262;DHT22;12385;51.412;5.540;2024-03-22T00:18:49;12.40;99.90
24262;DHT22;12385;51.412;5.540;2024-03-22T00:21:15;12.40;99.90
24262;DHT22;12385;51.412;5.540;2024-03-22T00:23:41;12.40;99.90
24262;DHT22;12385;51.412;5.540;2024-03-22T00:26:06;12.40;99.90
24262;DHT22;12385;51.412;5.540;2024-03-22T00:28:32;12.50;99.90
24262;DHT22;12385;51.412;5.540;2024-03-22T00:30:58;12.50;99.90
24262;DHT22;12385;51.412;5.540;2024-03-22T00:33:24;12.50;99.90
24262;DHT22;12385;51.412;5.540;2024-03-22T00:35:49;12.50;99.90
24262;DHT22;12385;51.412;5.540;2024-03-22T00:38:15;12.50;99.90
24262;DHT22;12385;51.412;5.540;2024-03-22T00:40:40;12.50;99.90
24262;DHT22;12385;51.412;5.540;2024-03-22T00:43:06;12.50;99.90
24262;DHT22;12385;51.412;5.540;2024-03-22T00:45:32;12.60;99.90
24262;DHT22;12385;51.412;5.540;2024-03-22T00:47:57;12.60;99.90
24262;DHT22;12385;51.412;5.540;2024-03-22T00:50:23;12.60;99.90
24262;DHT22;12385;51.412;5.540;2024-03-22T00:52:50;12.60;99.90
24262;DHT22;12385;51.412;5.540;2024-03-22T00:55:15;12.60;99.90
24262;DHT22;12385;51.412;5.540;2024-03-22T00:57:40;12.60;99.90
24262;DHT22;12385;51.412;5.540;2024-03-22T01:00:06;12.60;99.90
24262;DHT22;12385;51.412;5.540;2024-03-22T01:02:32;12.60;99.90
24262;DHT22;12385;51.412;5.540;2024-03-22T01:04:58;12.60;99.90
24262;DHT22;12385;51.412;5.540;2024-03-22T01:07:23;12.60;99.90
24262;DHT22;12385;51.412;5.540;2024-03-22T01:09:49;12.60;99.90
24262;DHT22;12385;51.412;5.540;2024-03-22T01:12:15;12.60;99.90
24262;DHT22;12385;51.412;5.540;2024-03-22T01:14:40;12.60;99.90
24262;DHT22;12385;51.412;5.540;2024-03-22T01:17:06;12.60;99.90
24262;DHT22;12385;51.412;5.540;2024-03-22T01:19:33;12.60;99.90
24262;DHT22;12385;51.412;5.540;2024-03-22T01:21:58;12.60;99.90
24262;DHT22;12385;51.412;5.540;2024-03-22T01:24:24;12.60;99.90
24262;DHT22;12385;51.412;5.540;2024-03-22T01:26:49;12.60;99.90
24262;DHT22;12385;51.412;5.540;2024-03-22T01:29:15;12.60;99.90
24262;DHT22;12385;51.412;5.540;2024-03-22T01:31:40;12.60;99.90
24262;DHT22;12385;51.412;5.540;2024-03-22T01:34:06;12.70;99.90
24262;DHT22;12385;51.412;5.540;2024-03-22T01:36:31;12.60;99.90
24262;DHT22;12385;51.412;5.540;2024-03-22T01:38:58;12.70;99.90
24262;DHT22;12385;51.412;5.540;2024-03-22T01:41:24;12.60;99.90
24262;DHT22;12385;51.412;5.540;2024-03-22T01:43:49;12.60;99.90
24262;DHT22;12385;51.412;5.540;2024-03-22T01:46:15;12.60;99.90
24262;DHT22;12385;51.412;5.540;2024-03-22T01:48:40;12.70;99.90
24262;DHT22;12385;51.412;5.540;2024-03-22T01:51:06;12.70;99.90
24262;DHT22;12385;51.412;5.540;2024-03-22T01:53:32;12.70;99.90
24262;DHT22;12385;51.412;5.540;2024-03-22T01:55:58;12.70;99.90
24262;DHT22;12385;51.412;5.540;2024-03-22T01:58:24;12.60;99.90
24262;DHT22;12385;51.412;5.540;2024-03-22T02:00:49;12.70;99.90
24262;DHT22;12385;51.412;5.540;2024-03-22T02:03:15;12.60;99.90
24262;DHT22;12385;51.412;5.540;2024-03-22T02:05:41;12.60;99.90
24262;DHT22;12385;51.412;5.540;2024-03-22T02:08:06;12.60;99.90
24262;DHT22;12385;51.412;5.540;2024-03-22T02:10:31;12.60;99.90
24262;DHT22;12385;51.412;5.540;2024-03-22T02:12:58;12.60;99.90
24262;DHT22;12385;51.412;5.540;2024-03-22T02:15:23;12.60;99.90
24262;DHT22;12385;51.412;5.540;2024-03-22T02:17:49;12.50;99.90
24262;DHT22;12385;51.412;5.540;2024-03-22T02:20:14;12.50;99.90
24262;DHT22;12385;51.412;5.540;2024-03-22T02:22:40;12.50;99.90
24262;DHT22;12385;51.412;5.540;2024-03-22T02:25:06;12.50;99.90
24262;DHT22;12385;51.412;5.540;2024-03-22T02:27:33;12.50;99.90
24262;DHT22;12385;51.412;5.540;2024-03-22T02:30:00;12.40;99.90
24262;DHT22;12385;51.412;5.540;2024-03-22T02:32:31;12.40;99.90
24262;DHT22;12385;51.412;5.540;2024-03-22T02:34:59;12.40;99.90
24262;DHT22;12385;51.412;5.540;2024-03-22T02:37:29;12.40;99.90
24262;DHT22;12385;51.412;5.540;2024-03-22T02:42:28;12.30;99.90
24262;DHT22;12385;51.412;5.540;2024-03-22T02:44:54;12.40;99.90
24262;DHT22;12385;51.412;5.540;2024-03-22T02:47:19;12.30;99.90
24262;DHT22;12385;51.412;5.540;2024-03-22T02:49:45;12.30;99.90
24262;DHT22;12385;51.412;5.540;2024-03-22T02:52:11;12.40;99.90
24262;DHT22;12385;51.412;5.540;2024-03-22T02:54:36;12.40;99.90
24262;DHT22;12385;51.412;5.540;2024-03-22T02:57:02;12.40;99.90
24262;DHT22;12385;51.412;5.540;2024-03-22T02:59:30;12.40;99.90
24262;DHT22;12385;51.412;5.540;2024-03-22T03:02:00;12.40;99.90
24262;DHT22;12385;51.412;5.540;2024-03-22T03:04:29;12.40;99.90
24262;DHT22;12385;51.412;5.540;2024-03-22T03:06:54;12.40;99.90
24262;DHT22;12385;51.412;5.540;2024-03-22T03:09:24;12.40;99.90
24262;DHT22;12385;51.412;5.540;2024-03-22T03:11:49;12.40;99.90
24262;DHT22;12385;51.412;5.540;2024-03-22T03:14:15;12.40;99.90
24262;DHT22;12385;51.412;5.540;2024-03-22T03:16:40;12.40;99.90
24262;DHT22;12385;51.412;5.540;2024-03-22T03:19:05;12.40;99.90
24262;DHT22;12385;51.412;5.540;2024-03-22T03:21:31;12.40;99.90
24262;DHT22;12385;51.412;5.540;2024-03-22T03:24:00;12.40;99.90
24262;DHT22;12385;51.412;5.540;2024-03-22T03:26:28;12.30;99.90
24262;DHT22;12385;51.412;5.540;2024-03-22T03:28:54;12.30;99.90
24262;DHT22;12385;51.412;5.540;2024-03-22T03:31:28;12.30;99.90
24262;DHT22;12385;51.412;5.540;2024-03-22T03:33:53;12.30;99.90
24262;DHT22;12385;51.412;5.540;2024-03-22T03:36:19;12.30;99.90
24262;DHT22;12385;51.412;5.540;2024-03-22T03:38:44;12.20;99.90
24262;DHT22;12385;51.412;5.540;2024-03-22T03:41:10;12.30;99.90
24262;DHT22;12385;51.412;5.540;2024-03-22T03:43:36;12.20;99.90
24262;DHT22;12385;51.412;5.540;2024-03-22T03:46:01;12.20;99.90
24262;DHT22;12385;51.412;5.540;2024-03-22T03:48:27;12.10;99.90
24262;DHT22;12385;51.412;5.540;2024-03-22T03:50:53;12.10;99.90
24262;DHT22;12385;51.412;5.540;2024-03-22T03:53:20;12.10;99.90
24262;DHT22;12385;51.412;5.540;2024-03-22T03:55:46;12.10;99.90
24262;DHT22;12385;51.412;5.540;2024-03-22T03:58:11;12.10;99.90
24262;DHT22;12385;51.412;5.540;2024-03-22T04:00:37;12.10;99.90
24262;DHT22;12385;51.412;5.540;2024-03-22T04:03:02;12.10;99.90
24262;DHT22;12385;51.412;5.540;2024-03-22T04:05:28;12.10;99.90
24262;DHT22;12385;51.412;5.540;2024-03-22T04:07:54;12.10;99.90
24262;DHT22;12385;51.412;5.540;2024-03-22T04:10:19;12.00;99.90
24262;DHT22;12385;51.412;5.540;2024-03-22T04:12:45;12.00;99.90
24262;DHT22;12385;51.412;5.540;2024-03-22T04:15:10;12.00;99.90
24262;DHT22;12385;51.412;5.540;2024-03-22T04:17:35;12.00;99.90
24262;DHT22;12385;51.412;5.540;2024-03-22T04:20:01;12.00;99.90
24262;DHT22;12385;51.412;5.540;2024-03-22T04:22:29;12.00;99.90
24262;DHT22;12385;51.412;5.540;2024-03-22T04:24:54;12.00;99.90
24262;DHT22;12385;51.412;5.540;2024-03-22T04:27:24;12.00;99.90
24262;DHT22;12385;51.412;5.540;2024-03-22T04:29:49;12.00;99.90
24262;DHT22;12385;51.412;5.540;2024-03-22T04:32:15;12.00;99.90
24262;DHT22;12385;51.412;5.540;2024-03-22T04:34:43;12.00;99.90
24262;DHT22;12385;51.412;5.540;2024-03-22T04:37:09;12.00;99.90
24262;DHT22;12385;51.412;5.540;2024-03-22T04:39:35;12.00;99.90
24262;DHT22;12385;51.412;5.540;2024-03-22T04:42:01;12.00;99.90
24262;DHT22;12385;51.412;5.540;2024-03-22T04:44:29;12.00;99.90
24262;DHT22;12385;51.412;5.540;2024-03-22T04:46:56;12.00;99.90
24262;DHT22;12385;51.412;5.540;2024-03-22T04:49:24;12.00;99.90
24262;DHT22;12385;51.412;5.540;2024-03-22T04:51:50;12.00;99.90
24262;DHT22;12385;51.412;5.540;2024-03-22T04:54:15;12.10;99.90
24262;DHT22;12385;51.412;5.540;2024-03-22T04:56:41;12.00;99.90
24262;DHT22;12385;51.412;5.540;2024-03-22T04:59:06;12.00;99.90
24262;DHT22;12385;51.412;5.540;2024-03-22T05:01:32;12.00;99.90
24262;DHT22;12385;51.412;5.540;2024-03-22T05:03:58;12.00;99.90
24262;DHT22;12385;51.412;5.540;2024-03-22T05:06:24;12.00;99.90
24262;DHT22;12385;51.412;5.540;2024-03-22T05:08:49;12.00;99.90
24262;DHT22;12385;51.412;5.540;2024-03-22T05:11:15;11.90;99.90
24262;DHT22;12385;51.412;5.540;2024-03-22T05:13:40;11.90;99.90
24262;DHT22;12385;51.412;5.540;2024-03-22T05:16:06;11.90;99.90
24262;DHT22;12385;51.412;5.540;2024-03-22T05:18:32;11.90;99.90
24262;DHT22;12385;51.412;5.540;2024-03-22T05:20:59;11.90;99.90
24262;DHT22;12385;51.412;5.540;2024-03-22T05:23:24;11.90;99.90
24262;DHT22;12385;51.412;5.540;2024-03-22T05:25:54;11.90;99.90
24262;DHT22;12385;51.412;5.540;2024-03-22T05:28:20;11.90;99.90
24262;DHT22;12385;51.412;5.540;2024-03-22T05:30:46;11.90;99.90
24262;DHT22;12385;51.412;5.540;2024-03-22T05:33:12;11.80;99.90
24262;DHT22;12385;51.412;5.540;2024-03-22T05:35:37;11.80;99.90
24262;DHT22;12385;51.412;5.540;2024-03-22T05:38:03;11.80;99.90
24262;DHT22;12385;51.412;5.540;2024-03-22T05:40:29;11.80;99.90
24262;DHT22;12385;51.412;5.540;2024-03-22T05:42:59;11.80;99.90
24262;DHT22;12385;51.412;5.540;2024-03-22T05:45:27;11.80;99.90
24262;DHT22;12385;51.412;5.540;2024-03-22T05:47:53;11.70;99.90
24262;DHT22;12385;51.412;5.540;2024-03-22T05:50:18;11.70;99.90
24262;DHT22;12385;51.412;5.540;2024-03-22T05:52:46;11.70;99.90
24262;DHT22;12385;51.412;5.540;2024-03-22T05:55:11;11.70;99.90
24262;DHT22;12385;51.412;5.540;2024-03-22T05:57:36;11.70;99.90
24262;DHT22;12385;51.412;5.540;2024-03-22T06:00:02;11.70;99.90
24262;DHT22;12385;51.412;5.540;2024-03-22T06:02:29;11.70;99.90
24262;DHT22;12385;51.412;5.540;2024-03-22T06:04:57;11.70;99.90
24262;DHT22;12385;51.412;5.540;2024-03-22T06:07:28;11.70;99.90
24262;DHT22;12385;51.412;5.540;2024-03-22T06:09:59;11.70;99.90
24262;DHT22;12385;51.412;5.540;2024-03-22T06:12:27;11.70;99.90
24262;DHT22;12385;51.412;5.540;2024-03-22T06:14:53;11.70;99.90
24262;DHT22;12385;51.412;5.540;2024-03-22T06:17:19;11.70;99.90
24262;DHT22;12385;51.412;5.540;2024-03-22T06:19:44;11.80;99.90
24262;DHT22;12385;51.412;5.540;2024-03-22T06:22:10;11.80;99.90
24262;DHT22;12385;51.412;5.540;2024-03-22T06:24:35;11.80;99.90
24262;DHT22;12385;51.412;5.540;2024-03-22T06:27:01;11.70;99.90
24262;DHT22;12385;51.412;5.540;2024-03-22T06:29:28;11.80;99.90
24262;DHT22;12385;51.412;5.540;2024-03-22T06:31:54;11.80;99.90
24262;DHT22;12385;51.412;5.540;2024-03-22T06:34:19;11.80;99.90
24262;DHT22;12385;51.412;5.540;2024-03-22T06:36:45;11.80;99.90
24262;DHT22;12385;51.412;5.540;2024-03-22T06:39:11;11.80;99.90
24262;DHT22;12385;51.412;5.540;2024-03-22T06:41:36;11.80;99.90
24262;DHT22;12385;51.412;5.540;2024-03-22T06:44:02;11.80;99.90
24262;DHT22;12385;51.412;5.540;2024-03-22T06:46:29;11.80;99.90
24262;DHT22;12385;51.412;5.540;2024-03-22T06:48:57;11.80;99.90
24262;DHT22;12385;51.412;5.540;2024-03-22T06:51:23;11.80;99.90
24262;DHT22;12385;51.412;5.540;2024-03-22T06:53:50;11.90;99.90
24262;DHT22;12385;51.412;5.540;2024-03-22T06:56:16;11.80;99.90
24262;DHT22;12385;51.412;5.540;2024-03-22T06:58:43;11.90;99.90
24262;DHT22;12385;51.412;5.540;2024-03-22T07:01:09;11.90;99.90
24262;DHT22;12385;51.412;5.540;2024-03-22T07:03:34;11.90;99.90
24262;DHT22;12385;51.412;5.540;2024-03-22T07:06:00;12.00;99.90
24262;DHT22;12385;51.412;5.540;2024-03-22T07:08:33;12.00;99.90
24262;DHT22;12385;51.412;5.540;2024-03-22T07:10:59;11.90;99.90
24262;DHT22;12385;51.412;5.540;2024-03-22T07:13:28;12.00;99.90
24262;DHT22;12385;51.412;5.540;2024-03-22T07:15:54;11.90;99.90
24262;DHT22;12385;51.412;5.540;2024-03-22T07:18:19;11.90;99.90
24262;DHT22;12385;51.412;5.540;2024-03-22T07:20:45;11.90;99.90
24262;DHT22;12385;51.412;5.540;2024-03-22T07:23:10;11.90;99.90
24262;DHT22;12385;51.412;5.540;2024-03-22T07:25:36;11.90;99.90
24262;DHT22;12385;51.412;5.540;2024-03-22T07:28:01;11.90;99.90
24262;DHT22;12385;51.412;5.540;2024-03-22T07:30:30;11.90;99.90
24262;DHT22;12385;51.412;5.540;2024-03-22T07:32:59;11.90;99.90
24262;DHT22;12385;51.412;5.540;2024-03-22T07:35:29;12.00;99.90
24262;DHT22;12385;51.412;5.540;2024-03-22T07:37:59;12.00;99.90
24262;DHT22;12385;51.412;5.540;2024-03-22T07:40:29;12.00;99.90
24262;DHT22;12385;51.412;5.540;2024-03-22T07:42:58;12.10;99.90
24262;DHT22;12385;51.412;5.540;2024-03-22T07:45:31;12.10;99.90
24262;DHT22;12385;51.412;5.540;2024-03-22T07:48:00;12.20;99.90
24262;DHT22;12385;51.412;5.540;2024-03-22T07:50:29;12.20;99.90
24262;DHT22;12385;51.412;5.540;2024-03-22T07:53:00;12.20;99.90
24262;DHT22;12385;51.412;5.540;2024-03-22T07:55:31;12.30;99.90
24262;DHT22;12385;51.412;5.540;2024-03-22T07:58:01;12.30;99.90
24262;DHT22;12385;51.412;5.540;2024-03-22T08:00:31;12.40;99.90
24262;DHT22;12385;51.412;5.540;2024-03-22T08:03:00;12.40;99.90
24262;DHT22;12385;51.412;5.540;2024-03-22T08:05:29;12.40;99.90
24262;DHT22;12385;51.412;5.540;2024-03-22T08:08:00;12.40;99.90
24262;DHT22;12385;51.412;5.540;2024-03-22T08:10:31;12.50;99.90
24262;DHT22;12385;51.412;5.540;2024-03-22T08:12:59;12.50;99.90
24262;DHT22;12385;51.412;5.540;2024-03-22T08:15:29;12.60;99.90
24262;DHT22;12385;51.412;5.540;2024-03-22T08:17:59;12.60;99.90
24262;DHT22;12385;51.412;5.540;2024-03-22T08:20:29;12.70;99.90
24262;DHT22;12385;51.412;5.540;2024-03-22T08:23:00;12.70;99.90
24262;DHT22;12385;51.412;5.540;2024-03-22T08:25:29;12.80;99.90
24262;DHT22;12385;51.412;5.540;2024-03-22T08:28:01;12.90;99.90
24262;DHT22;12385;51.412;5.540;2024-03-22T08:30:29;12.90;99.90
24262;DHT22;12385;51.412;5.540;2024-03-22T08:32:58;13.00;99.90
24262;DHT22;12385;51.412;5.540;2024-03-22T08:35:29;13.00;99.90
24262;DHT22;12385;51.412;5.540;2024-03-22T08:37:59;12.90;99.90
24262;DHT22;12385;51.412;5.540;2024-03-22T08:40:28;12.90;99.90
24262;DHT22;12385;51.412;5.540;2024-03-22T08:42:54;12.90;99.90
24262;DHT22;12385;51.412;5.540;2024-03-22T08:45:19;12.90;99.90
24262;DHT22;12385;51.412;5.540;2024-03-22T08:47:45;12.90;99.90
24262;DHT22;12385;51.412;5.540;2024-03-22T08:50:13;12.90;99.90
24262;DHT22;12385;51.412;5.540;2024-03-22T08:52:39;12.90;99.90
24262;DHT22;12385;51.412;5.540;2024-03-22T08:55:04;12.90;99.90
24262;DHT22;12385;51.412;5.540;2024-03-22T08:57:32;12.90;99.90
24262;DHT22;12385;51.412;5.540;2024-03-22T08:59:59;12.80;99.90
24262;DHT22;12385;51.412;5.540;2024-03-22T09:02:29;12.80;99.90
24262;DHT22;12385;51.412;5.540;2024-03-22T09:05:06;12.80;99.90
24262;DHT22;12385;51.412;5.540;2024-03-22T09:07:33;12.80;99.90
24262;DHT22;12385;51.412;5.540;2024-03-22T09:10:00;12.90;99.90
24262;DHT22;12385;51.412;5.540;2024-03-22T09:12:27;13.00;99.90
24262;DHT22;12385;51.412;5.540;2024-03-22T09:14:53;13.00;99.90
24262;DHT22;12385;51.412;5.540;2024-03-22T09:17:19;13.00;99.90
24262;DHT22;12385;51.412;5.540;2024-03-22T09:19:44;13.00;99.90
24262;DHT22;12385;51.412;5.540;2024-03-22T09:22:12;12.90;99.90
24262;DHT22;12385;51.412;5.540;2024-03-22T09:24:37;12.90;99.90
24262;DHT22;12385;51.412;5.540;2024-03-22T09:27:03;12.90;99.90
24262;DHT22;12385;51.412;5.540;2024-03-22T09:29:34;12.80;99.90
24262;DHT22;12385;51.412;5.540;2024-03-22T09:32:00;12.80;99.90
24262;DHT22;12385;51.412;5.540;2024-03-22T09:34:29;12.90;99.90
24262;DHT22;12385;51.412;5.540;2024-03-22T09:36:58;12.90;99.90
24262;DHT22;12385;51.412;5.540;2024-03-22T09:39:24;13.00;99.90
24262;DHT22;12385;51.412;5.540;2024-03-22T09:41:53;13.00;99.90
24262;DHT22;12385;51.412;5.540;2024-03-22T09:44:24;13.20;99.90
24262;DHT22;12385;51.412;5.540;2024-03-22T09:46:54;13.20;99.90
24262;DHT22;12385;51.412;5.540;2024-03-22T09:49:24;13.30;99.90
24262;DHT22;12385;51.412;5.540;2024-03-22T09:51:54;13.30;99.90
24262;DHT22;12385;51.412;5.540;2024-03-22T09:54:29;13.40;99.90
24262;DHT22;12385;51.412;5.540;2024-03-22T09:56:58;13.40;99.90
24262;DHT22;12385;51.412;5.540;2024-03-22T09:59:24;13.40;99.90
24262;DHT22;12385;51.412;5.540;2024-03-22T10:01:53;13.50;99.90
24262;DHT22;12385;51.412;5.540;2024-03-22T10:04:24;13.60;99.90
24262;DHT22;12385;51.412;5.540;2024-03-22T10:07:00;13.60;99.90
24262;DHT22;12385;51.412;5.540;2024-03-22T10:09:29;13.50;99.90
24262;DHT22;12385;51.412;5.540;2024-03-22T10:12:00;13.50;99.90
24262;DHT22;12385;51.412;5.540;2024-03-22T10:14:29;13.50;99.90
24262;DHT22;12385;51.412;5.540;2024-03-22T10:17:00;13.40;99.90
24262;DHT22;12385;51.412;5.540;2024-03-22T10:19:28;13.40;99.90
24262;DHT22;12385;51.412;5.540;2024-03-22T10:22:01;13.40;99.90
24262;DHT22;12385;51.412;5.540;2024-03-22T10:24:30;13.30;99.90
24262;DHT22;12385;51.412;5.540;2024-03-22T10:26:58;13.30;99.90
24262;DHT22;12385;51.412;5.540;2024-03-22T10:29:24;13.20;99.90
24262;DHT22;12385;51.412;5.540;2024-03-22T10:31:53;13.20;99.90
24262;DHT22;12385;51.412;5.540;2024-03-22T10:34:19;13.30;99.90
24262;DHT22;12385;51.412;5.540;2024-03-22T10:36:46;13.20;99.90
24262;DHT22;12385;51.412;5.540;2024-03-22T10:39:13;13.30;99.90
24262;DHT22;12385;51.412;5.540;2024-03-22T10:41:40;13.20;99.90
24262;DHT22;12385;51.412;5.540;2024-03-22T10:44:06;13.20;99.90
24262;DHT22;12385;51.412;5.540;2024-03-22T10:46:34;13.10;99.90
24262;DHT22;12385;51.412;5.540;2024-03-22T10:49:00;13.10;99.90
24262;DHT22;12385;51.412;5.540;2024-03-22T10:51:32;13.10;99.90
24262;DHT22;12385;51.412;5.540;2024-03-22T10:54:00;13.10;99.90
24262;DHT22;12385;51.412;5.540;2024-03-22T10:56:29;13.10;99.90
24262;DHT22;12385;51.412;5.540;2024-03-22T10:59:04;13.00;99.90
24262;DHT22;12385;51.412;5.540;2024-03-22T11:01:32;13.00;99.90
24262;DHT22;12385;51.412;5.540;2024-03-22T11:04:07;13.00;99.90
24262;DHT22;12385;51.412;5.540;2024-03-22T11:06:38;13.00;99.90
24262;DHT22;12385;51.412;5.540;2024-03-22T11:09:04;13.00;99.90
24262;DHT22;12385;51.412;5.540;2024-03-22T11:11:30;13.00;99.90
24262;DHT22;12385;51.412;5.540;2024-03-22T11:14:03;12.90;99.90
24262;DHT22;12385;51.412;5.540;2024-03-22T11:16:31;13.00;99.90
24262;DHT22;12385;51.412;5.540;2024-03-22T11:19:01;13.00;99.90
24262;DHT22;12385;51.412;5.540;2024-03-22T11:21:32;13.00;99.90
24262;DHT22;12385;51.412;5.540;2024-03-22T11:24:01;12.90;99.90
24262;DHT22;12385;51.412;5.540;2024-03-22T11:26:31;12.90;99.90
24262;DHT22;12385;51.412;5.540;2024-03-22T11:29:03;13.00;99.90
24262;DHT22;12385;51.412;5.540;2024-03-22T11:31:29;13.00;99.90
24262;DHT22;12385;51.412;5.540;2024-03-22T11:33:58;13.00;99.90
24262;DHT22;12385;51.412;5.540;2024-03-22T11:36:29;13.00;99.90
24262;DHT22;12385;51.412;5.540;2024-03-22T11:38:58;13.10;99.90
24262;DHT22;12385;51.412;5.540;2024-03-22T11:41:25;13.00;99.90
24262;DHT22;12385;51.412;5.540;2024-03-22T11:43:53;13.00;99.90
24262;DHT22;12385;51.412;5.540;2024-03-22T11:46:19;13.00;99.90
24262;DHT22;12385;51.412;5.540;2024-03-22T11:48:53;13.00;99.90
24262;DHT22;12385;51.412;5.540;2024-03-22T11:51:19;13.00;99.90
24262;DHT22;12385;51.412;5.540;2024-03-22T11:53:51;13.00;99.90
24262;DHT22;12385;51.412;5.540;2024-03-22T11:56:17;12.90;99.90
24262;DHT22;12385;51.412;5.540;2024-03-22T11:58:43;12.90;99.90
24262;DHT22;12385;51.412;5.540;2024-03-22T12:01:10;13.00;99.90
24262;DHT22;12385;51.412;5.540;2024-03-22T12:03:36;13.00;99.90
24262;DHT22;12385;51.412;5.540;2024-03-22T12:06:03;13.00;99.90
24262;DHT22;12385;51.412;5.540;2024-03-22T12:08:29;13.00;99.90
24262;DHT22;12385;51.412;5.540;2024-03-22T12:10:57;13.10;99.90
24262;DHT22;12385;51.412;5.540;2024-03-22T12:13:23;13.20;99.90
24262;DHT22;12385;51.412;5.540;2024-03-22T12:15:49;13.20;99.90
24262;DHT22;12385;51.412;5.540;2024-03-22T12:18:14;13.20;99.90
24262;DHT22;12385;51.412;5.540;2024-03-22T12:20:40;13.20;99.90
24262;DHT22;12385;51.412;5.540;2024-03-22T12:23:05;13.10;99.90
24262;DHT22;12385;51.412;5.540;2024-03-22T12:25:31;13.10;99.90
24262;DHT22;12385;51.412;5.540;2024-03-22T12:27:58;13.10;99.90
24262;DHT22;12385;51.412;5.540;2024-03-22T12:30:28;13.10;99.90
24262;DHT22;12385;51.412;5.540;2024-03-22T12:32:59;13.10;99.90
24262;DHT22;12385;51.412;5.540;2024-03-22T12:35:28;13.10;99.90
24262;DHT22;12385;51.412;5.540;2024-03-22T12:37:58;13.00;99.90
24262;DHT22;12385;51.412;5.540;2024-03-22T12:40:24;13.00;99.90
24262;DHT22;12385;51.412;5.540;2024-03-22T12:42:54;13.00;99.90
24262;DHT22;12385;51.412;5.540;2024-03-22T12:45:28;13.10;99.90
24262;DHT22;12385;51.412;5.540;2024-03-22T12:47:59;13.10;99.90
24262;DHT22;12385;51.412;5.540;2024-03-22T12:50:31;13.10;99.90
24262;DHT22;12385;51.412;5.540;2024-03-22T12:52:59;13.20;99.90
24262;DHT22;12385;51.412;5.540;2024-03-22T12:55:31;13.20;99.90
24262;DHT22;12385;51.412;5.540;2024-03-22T12:57:59;13.30;99.90
24262;DHT22;12385;51.412;5.540;2024-03-22T13:00:30;13.20;99.90
24262;DHT22;12385;51.412;5.540;2024-03-22T13:02:59;13.20;99.90
24262;DHT22;12385;51.412;5.540;2024-03-22T13:05:29;13.20;99.90
24262;DHT22;12385;51.412;5.540;2024-03-22T13:07:59;13.10;99.90
24262;DHT22;12385;51.412;5.540;2024-03-22T13:10:31;13.10;99.90
24262;DHT22;12385;51.412;5.540;2024-03-22T13:12:59;13.00;99.90
24262;DHT22;12385;51.412;5.540;2024-03-22T13:15:30;13.00;99.90
24262;DHT22;12385;51.412;5.540;2024-03-22T13:17:59;12.90;99.90
24262;DHT22;12385;51.412;5.540;2024-03-22T13:20:29;12.90;99.90
24262;DHT22;12385;51.412;5.540;2024-03-22T13:22:59;12.90;99.90
24262;DHT22;12385;51.412;5.540;2024-03-22T13:25:29;12.90;99.90
24262;DHT22;12385;51.412;5.540;2024-03-22T13:27:58;12.90;99.90
24262;DHT22;12385;51.412;5.540;2024-03-22T13:30:28;12.90;99.90
24262;DHT22;12385;51.412;5.540;2024-03-22T13:32:59;12.80;99.90
24262;DHT22;12385;51.412;5.540;2024-03-22T13:35:30;12.80;99.90
24262;DHT22;12385;51.412;5.540;2024-03-22T13:37:59;12.80;99.90
24262;DHT22;12385;51.412;5.540;2024-03-22T13:40:32;12.70;99.90
24262;DHT22;12385;51.412;5.540;2024-03-22T13:42:59;12.70;99.90
24262;DHT22;12385;51.412;5.540;2024-03-22T13:45:31;12.60;99.90
24262;DHT22;12385;51.412;5.540;2024-03-22T13:47:59;12.50;99.90
24262;DHT22;12385;51.412;5.540;2024-03-22T13:50:29;12.50;99.90
24262;DHT22;12385;51.412;5.540;2024-03-22T13:52:59;12.50;99.90
24262;DHT22;12385;51.412;5.540;2024-03-22T13:55:29;12.50;99.90
24262;DHT22;12385;51.412;5.540;2024-03-22T13:58:00;12.50;99.90
24262;DHT22;12385;51.412;5.540;2024-03-22T14:00:32;12.50;99.90
24262;DHT22;12385;51.412;5.540;2024-03-22T14:02:59;12.50;99.90
24262;DHT22;12385;51.412;5.540;2024-03-22T14:05:32;12.50;99.90
24262;DHT22;12385;51.412;5.540;2024-03-22T14:07:59;12.40;99.90
24262;DHT22;12385;51.412;5.540;2024-03-22T14:10:33;12.40;99.90
24262;DHT22;12385;51.412;5.540;2024-03-22T14:12:59;12.40;99.90
24262;DHT22;12385;51.412;5.540;2024-03-22T14:15:30;12.40;99.90
24262;DHT22;12385;51.412;5.540;2024-03-22T14:18:00;12.30;99.90
24262;DHT22;12385;51.412;5.540;2024-03-22T14:20:32;12.20;99.90
24262;DHT22;12385;51.412;5.540;2024-03-22T14:22:59;12.20;99.90
24262;DHT22;12385;51.412;5.540;2024-03-22T14:25:24;12.20;99.90
24262;DHT22;12385;51.412;5.540;2024-03-22T14:27:59;12.20;99.90
24262;DHT22;12385;51.412;5.540;2024-03-22T14:30:31;12.20;99.90
24262;DHT22;12385;51.412;5.540;2024-03-22T14:32:59;12.20;99.90
24262;DHT22;12385;51.412;5.540;2024-03-22T14:35:30;12.20;99.90
24262;DHT22;12385;51.412;5.540;2024-03-22T14:37:59;12.10;99.90
24262;DHT22;12385;51.412;5.540;2024-03-22T14:40:30;12.10;99.90
24262;DHT22;12385;51.412;5.540;2024-03-22T14:43:01;12.10;99.90
24262;DHT22;12385;51.412;5.540;2024-03-22T14:45:30;12.00;99.90
24262;DHT22;12385;51.412;5.540;2024-03-22T14:47:59;12.10;99.90
24262;DHT22;12385;51.412;5.540;2024-03-22T14:50:34;12.10;99.90
24262;DHT22;12385;51.412;5.540;2024-03-22T14:52:59;12.00;99.90
24262;DHT22;12385;51.412;5.540;2024-03-22T14:55:31;12.00;99.90
24262;DHT22;12385;51.412;5.540;2024-03-22T14:57:59;12.00;99.90
24262;DHT22;12385;51.412;5.540;2024-03-22T15:00:30;12.00;99.90
24262;DHT22;12385;51.412;5.540;2024-03-22T15:02:59;11.90;99.90
24262;DHT22;12385;51.412;5.540;2024-03-22T15:05:30;11.90;99.90
24262;DHT22;12385;51.412;5.540;2024-03-22T15:07:59;11.90;99.90
24262;DHT22;12385;51.412;5.540;2024-03-22T15:10:30;11.90;99.90
24262;DHT22;12385;51.412;5.540;2024-03-22T15:12:59;12.00;99.90
24262;DHT22;12385;51.412;5.540;2024-03-22T15:15:30;11.90;99.90
24262;DHT22;12385;51.412;5.540;2024-03-22T15:17:59;11.90;99.90
24262;DHT22;12385;51.412;5.540;2024-03-22T15:20:31;11.90;99.90
24262;DHT22;12385;51.412;5.540;2024-03-22T15:22:59;11.90;99.90
24262;DHT22;12385;51.412;5.540;2024-03-22T15:25:32;11.80;99.90
24262;DHT22;12385;51.412;5.540;2024-03-22T15:28:00;11.80;99.90
24262;DHT22;12385;51.412;5.540;2024-03-22T15:30:31;11.70;99.90
24262;DHT22;12385;51.412;5.540;2024-03-22T15:32:59;11.70;99.90
24262;DHT22;12385;51.412;5.540;2024-03-22T15:35:31;11.80;99.90